createdAt,value
2022-08-28T00:00:36.259Z,102393.25
2022-08-28T00:03:07.059Z,102394.38
2022-08-28T00:05:36.195Z,102393.66
2022-08-28T00:08:04.841Z,102396.41
2022-08-28T00:10:33.809Z,102398.25
2022-08-28T00:13:02.076Z,102397.41
2022-08-28T00:15:32.688Z,102393.16
2022-08-28T00:18:01.696Z,102394.09
2022-08-28T00:20:34.209Z,102397.63
2022-08-28T00:23:03.597Z,102389.81
2022-08-28T00:25:33.056Z,102388.19
2022-08-28T00:28:05.244Z,102401.56
2022-08-28T00:30:39.746Z,102395.50
2022-08-28T00:33:11.235Z,102403.50
2022-08-28T00:35:41.714Z,102408.84
2022-08-28T00:38:10.103Z,102407.13
2022-08-28T00:40:40.335Z,102406.38
2022-08-28T00:43:09.964Z,102409.06
2022-08-28T00:45:40.099Z,102412.72
2022-08-28T00:48:08.888Z,102404.97
2022-08-28T00:50:51.627Z,102412.13
2022-08-28T00:53:23.529Z,102407.00
2022-08-28T00:55:57.906Z,102403.44
2022-08-28T00:58:25.962Z,102405.28
2022-08-28T01:00:54.064Z,102407.13
2022-08-28T01:03:25.167Z,102411.72
2022-08-28T01:05:55.071Z,102411.72
2022-08-28T01:08:24.757Z,102414.41
2022-08-28T01:11:02.828Z,102416.28
2022-08-28T01:13:31.855Z,102412.03
2022-08-28T01:16:01.401Z,102415.69
2022-08-28T01:18:30.565Z,102412.28
2022-08-28T01:21:06.602Z,102422.03
2022-08-28T01:23:58.351Z,102420.34
2022-08-28T01:26:28.240Z,102417.91
2022-08-28T01:28:58.410Z,102411.25
2022-08-28T01:31:28.473Z,102411.50
2022-08-28T01:33:57.487Z,102411.56
2022-08-28T01:36:25.549Z,102417.78
2022-08-28T01:38:57.707Z,102416.22
2022-08-28T01:41:26.145Z,102420.78
2022-08-28T01:43:54.932Z,102420.16
2022-08-28T01:46:23.138Z,102428.22
2022-08-28T01:48:54.339Z,102432.72
2022-08-28T01:51:24.599Z,102436.44
2022-08-28T01:53:53.042Z,102447.13
2022-08-28T01:56:22.534Z,102453.38
2022-08-28T01:58:50.658Z,102456.22
2022-08-28T02:01:21.387Z,102456.31
2022-08-28T02:03:53.008Z,102456.38
2022-08-28T02:06:21.742Z,102459.09
2022-08-28T02:08:54.730Z,102460.00
2022-08-28T02:11:25.043Z,102467.22
2022-08-28T02:13:54.369Z,102463.00
2022-08-28T02:16:24.628Z,102461.31
2022-08-28T02:18:53.192Z,102458.75
2022-08-28T02:21:21.284Z,102462.22
2022-08-28T02:23:49.454Z,102465.78
2022-08-28T02:26:17.643Z,102453.56
2022-08-28T02:28:47.699Z,102462.22
2022-08-28T02:31:15.883Z,102461.31
2022-08-28T02:33:46.137Z,102465.63
2022-08-28T02:36:16.973Z,102467.34
2022-08-28T02:38:45.755Z,102465.72
2022-08-28T02:41:14.447Z,102474.63
2022-08-28T02:43:42.720Z,102466.94
2022-08-28T02:46:12.604Z,102463.66
2022-08-28T02:48:42.523Z,102472.59
2022-08-28T02:51:13.438Z,102463.13
2022-08-28T02:53:42.818Z,102472.03
2022-08-28T02:56:12.001Z,102466.91
2022-08-28T02:58:40.866Z,102474.03
2022-08-28T03:01:12.558Z,102467.03
2022-08-28T03:03:42.348Z,102468.75
2022-08-28T03:06:12.865Z,102473.88
2022-08-28T03:08:41.772Z,102473.88
2022-08-28T03:11:10.268Z,102468.63
2022-08-28T03:13:38.345Z,102470.31
2022-08-28T03:16:06.413Z,102472.88
2022-08-28T03:18:35.949Z,102475.50
2022-08-28T03:21:04.125Z,102478.16
2022-08-28T03:23:32.629Z,102476.38
2022-08-28T03:26:02.678Z,102477.28
2022-08-28T03:28:34.715Z,102475.56
2022-08-28T03:31:03.254Z,102473.03
2022-08-28T03:33:31.238Z,102466.19
2022-08-28T03:36:01.104Z,102472.38
2022-08-28T03:38:33.913Z,102461.78
2022-08-28T03:41:02.450Z,102460.00
2022-08-28T03:43:31.575Z,102455.59
2022-08-28T03:46:01.561Z,102461.84
2022-08-28T03:48:31.761Z,102455.75
2022-08-28T03:51:01.928Z,102466.34
2022-08-28T03:53:31.134Z,102472.44
2022-08-28T03:55:59.498Z,102476.00
2022-08-28T03:58:28.075Z,102473.28
2022-08-28T04:00:56.270Z,102475.03
2022-08-28T04:03:24.499Z,102474.03
2022-08-28T04:05:52.784Z,102473.88
2022-08-28T04:08:23.546Z,102472.03
2022-08-28T04:10:52.678Z,102478.06
2022-08-28T04:13:22.000Z,102475.28
2022-08-28T04:15:58.606Z,102480.44
2022-08-28T04:18:27.531Z,102478.59
2022-08-28T04:21:00.181Z,102482.16
2022-08-28T04:23:29.829Z,102475.13
2022-08-28T04:25:57.913Z,102480.31
2022-08-28T04:28:27.143Z,102481.16
2022-08-28T04:30:56.434Z,102486.34
2022-08-28T04:33:26.040Z,102489.75
2022-08-28T04:35:54.641Z,102485.44
2022-08-28T04:38:22.942Z,102492.38
2022-08-28T04:40:52.442Z,102494.13
2022-08-28T04:43:21.291Z,102501.97
2022-08-28T04:45:49.588Z,102496.69
2022-08-28T04:48:17.926Z,102498.31
2022-08-28T04:50:48.711Z,102498.22
2022-08-28T04:53:19.206Z,102499.09
2022-08-28T04:55:53.735Z,102509.63
2022-08-28T04:58:24.754Z,102507.13
2022-08-28T05:00:54.263Z,102509.91
2022-08-28T05:03:23.213Z,102514.41
2022-08-28T05:05:53.405Z,102513.63
2022-08-28T05:08:24.282Z,102520.72
2022-08-28T05:10:53.054Z,102526.97
2022-08-28T05:13:21.127Z,102519.13
2022-08-28T05:15:52.520Z,102526.97
2022-08-28T05:18:24.027Z,102527.78
2022-08-28T05:20:52.325Z,102524.22
2022-08-28T05:23:25.459Z,102533.81
2022-08-28T05:25:53.761Z,102542.59
2022-08-28T05:28:23.834Z,102541.63
2022-08-28T05:30:54.100Z,102542.59
2022-08-28T05:33:22.387Z,102543.41
2022-08-28T05:35:50.388Z,102549.47
2022-08-28T05:38:18.682Z,102559.00
2022-08-28T05:40:49.283Z,102551.03
2022-08-28T05:43:18.796Z,102558.78
2022-08-28T05:45:46.941Z,102549.84
2022-08-28T05:48:16.787Z,102555.03
2022-08-28T05:50:47.355Z,102555.75
2022-08-28T05:53:17.995Z,102565.28
2022-08-28T05:55:46.662Z,102573.06
2022-08-28T05:58:33.597Z,102570.28
2022-08-28T06:01:14.325Z,102577.03
2022-08-28T06:03:46.018Z,102576.94
2022-08-28T06:06:16.805Z,102583.81
2022-08-28T06:08:58.132Z,102587.22
2022-08-28T06:11:30.571Z,102587.06
2022-08-28T06:14:02.400Z,102582.50
2022-08-28T06:16:31.494Z,102594.59
2022-08-28T06:19:01.699Z,102590.06
2022-08-28T06:21:30.139Z,102598.59
2022-08-28T06:23:58.221Z,102597.50
2022-08-28T06:26:26.564Z,102602.63
2022-08-28T06:28:55.815Z,102605.13
2022-08-28T06:31:25.895Z,102602.34
2022-08-28T06:33:57.427Z,102601.25
2022-08-28T06:36:29.347Z,102609.88
2022-08-28T06:39:00.527Z,102612.28
2022-08-28T06:41:32.145Z,102608.50
2022-08-28T06:44:03.623Z,102607.44
2022-08-28T06:46:33.320Z,102606.31
2022-08-28T06:49:04.475Z,102607.81
2022-08-28T06:51:34.539Z,102606.56
2022-08-28T06:54:02.765Z,102599.22
2022-08-28T06:56:31.327Z,102607.75
2022-08-28T06:59:00.585Z,102612.88
2022-08-28T07:01:30.375Z,102612.72
2022-08-28T07:04:00.514Z,102615.22
2022-08-28T07:06:32.013Z,102617.69
2022-08-28T07:09:01.762Z,102628.06
2022-08-28T07:11:32.465Z,102624.41
2022-08-28T07:14:01.821Z,102632.19
2022-08-28T07:16:31.979Z,102628.47
2022-08-28T07:19:02.744Z,102627.31
2022-08-28T07:21:31.217Z,102628.94
2022-08-28T07:23:59.281Z,102630.47
2022-08-28T07:26:28.905Z,102627.63
2022-08-28T07:29:10.045Z,102630.94
2022-08-28T07:31:40.954Z,102625.44
2022-08-28T07:34:09.623Z,102631.34
2022-08-28T07:36:38.584Z,102621.53
2022-08-28T07:39:07.773Z,102630.88
2022-08-28T07:41:40.273Z,102628.72
2022-08-28T07:44:26.122Z,102635.22
2022-08-28T07:46:55.551Z,102627.88
2022-08-28T07:49:24.440Z,102637.38
2022-08-28T07:51:53.886Z,102626.38
2022-08-28T07:54:23.055Z,102634.75
2022-08-28T07:56:53.773Z,102640.53
2022-08-28T07:59:22.178Z,102638.31
2022-08-28T08:01:52.316Z,102642.44
2022-08-28T08:04:22.801Z,102642.97
2022-08-28T08:06:57.556Z,102646.03
2022-08-28T08:09:27.162Z,102648.19
2022-08-28T08:11:57.696Z,102653.13
2022-08-28T08:14:25.951Z,102650.16
2022-08-28T08:16:54.638Z,102650.75
2022-08-28T08:19:23.085Z,102660.41
2022-08-28T08:21:55.122Z,102658.50
2022-08-28T08:24:26.450Z,102653.16
2022-08-28T08:27:00.810Z,102663.63
2022-08-28T08:29:32.072Z,102658.00
2022-08-28T08:32:05.854Z,102659.44
2022-08-28T08:34:36.579Z,102657.28
2022-08-28T08:37:05.644Z,102659.69
2022-08-28T08:39:34.356Z,102661.13
2022-08-28T08:42:06.296Z,102670.34
2022-08-28T08:44:37.772Z,102657.22
2022-08-28T08:47:14.993Z,102669.34
2022-08-28T08:49:49.673Z,102669.09
2022-08-28T08:52:31.447Z,102663.53
2022-08-28T08:55:17.963Z,102659.84
2022-08-28T08:57:51.890Z,102657.00
2022-08-28T09:00:20.968Z,102661.19
2022-08-28T09:02:55.851Z,102663.19
2022-08-28T09:05:34.210Z,102657.16
2022-08-28T09:08:04.660Z,102654.25
2022-08-28T09:10:39.960Z,102653.13
2022-08-28T09:13:18.651Z,102648.00
2022-08-28T09:15:50.631Z,102645.59
2022-08-28T09:18:23.143Z,102641.44
2022-08-28T09:20:51.981Z,102634.00
2022-08-28T09:23:20.392Z,102645.69
2022-08-28T09:25:56.688Z,102642.19
2022-08-28T09:28:31.858Z,102634.66
2022-08-28T09:31:04.585Z,102625.81
2022-08-28T09:33:41.806Z,102626.75
2022-08-28T09:36:31.662Z,102624.03
2022-08-28T09:39:12.911Z,102618.38
2022-08-28T09:42:04.954Z,102617.72
2022-08-28T09:44:34.734Z,102615.19
2022-08-28T09:47:02.800Z,102616.13
2022-08-28T09:49:31.833Z,102611.47
2022-08-28T09:52:01.718Z,102603.41
2022-08-28T09:54:35.576Z,102608.47
2022-08-28T09:57:04.638Z,102607.56
2022-08-28T09:59:34.384Z,102607.03
2022-08-28T10:02:14.695Z,102602.22
2022-08-28T10:04:54.584Z,102592.94
2022-08-28T10:07:30.362Z,102594.41
2022-08-28T10:10:17.936Z,102593.69
2022-08-28T10:12:58.460Z,102592.88
2022-08-28T10:15:33.756Z,102594.28
2022-08-28T10:18:29.051Z,102591.63
2022-08-28T10:21:05.125Z,102591.09
2022-08-28T10:23:43.208Z,102585.75
2022-08-28T10:26:26.080Z,102594.47
2022-08-28T10:29:07.904Z,102581.06
2022-08-28T10:31:44.305Z,102575.28
2022-08-28T10:34:28.028Z,102579.59
2022-08-28T10:37:09.398Z,102577.25
2022-08-28T10:39:49.534Z,102563.00
2022-08-28T10:42:24.428Z,102567.28
2022-08-28T10:45:05.423Z,102564.44
2022-08-28T10:47:38.461Z,102564.19
2022-08-28T10:50:12.661Z,102563.69
2022-08-28T10:52:45.775Z,102562.38
2022-08-28T10:55:19.456Z,102557.41
2022-08-28T10:57:55.104Z,102554.13
2022-08-28T11:00:25.136Z,102548.78
2022-08-28T11:02:59.403Z,102537.41
2022-08-28T11:05:31.312Z,102547.13
2022-08-28T11:08:04.163Z,102537.41
2022-08-28T11:10:48.487Z,102536.94
2022-08-28T11:13:41.238Z,102536.69
2022-08-28T11:16:14.173Z,102537.41
2022-08-28T11:19:14.946Z,102538.03
2022-08-28T11:21:48.837Z,102522.13
2022-08-28T11:24:44.206Z,102525.75
2022-08-28T11:27:27.854Z,102526.25
2022-08-28T11:30:06.556Z,102526.00
2022-08-28T11:32:47.095Z,102529.41
2022-08-28T11:35:54.109Z,102525.25
2022-08-28T11:39:13.116Z,102525.03
2022-08-28T11:42:26.250Z,102524.75
2022-08-28T11:44:54.264Z,102529.31
2022-08-28T11:47:44.781Z,102524.47
2022-08-28T11:50:32.433Z,102518.13
2022-08-28T11:53:38.632Z,102519.84
2022-08-28T11:56:32.296Z,102516.59
2022-08-28T11:59:16.046Z,102519.44
2022-08-28T12:01:44.629Z,102522.59
2022-08-28T12:04:14.802Z,102526.00
2022-08-28T12:06:55.110Z,102537.97
2022-08-28T12:09:44.678Z,102538.44
2022-08-28T12:12:46.194Z,102537.84
2022-08-28T12:15:39.325Z,102538.03
2022-08-28T12:18:14.541Z,102538.56
2022-08-28T12:20:59.772Z,102537.91
2022-08-28T12:23:40.250Z,102529.50
2022-08-28T12:26:13.218Z,102526.50
2022-08-28T12:28:47.106Z,102520.72
2022-08-28T12:32:03.197Z,102526.03
2022-08-28T12:34:41.883Z,102523.38
2022-08-28T12:37:26.692Z,102529.25
2022-08-28T12:39:58.060Z,102523.66
2022-08-28T12:42:32.482Z,102531.16
2022-08-28T12:45:06.184Z,102528.22
2022-08-28T12:47:37.190Z,102528.22
2022-08-28T12:50:27.528Z,102530.03
2022-08-28T12:52:58.642Z,102535.97
2022-08-28T12:55:26.784Z,102532.03
2022-08-28T12:57:54.965Z,102520.97
2022-08-28T13:00:26.107Z,102529.13
2022-08-28T13:02:57.673Z,102525.28
2022-08-28T13:05:33.272Z,102524.78
2022-08-28T13:08:06.759Z,102528.22
2022-08-28T13:10:39.101Z,102527.47
2022-08-28T13:13:10.969Z,102518.38
2022-08-28T13:15:55.498Z,102521.34
2022-08-28T13:18:55.424Z,102523.19
2022-08-28T13:21:37.306Z,102520.50
2022-08-28T13:24:38.305Z,102513.09
2022-08-28T13:27:16.382Z,102510.28
2022-08-28T13:29:57.442Z,102510.16
2022-08-28T13:32:30.208Z,102501.28
2022-08-28T13:35:26.606Z,102512.13
2022-08-28T13:37:56.583Z,102511.00
2022-08-28T13:40:56.335Z,102499.31
2022-08-28T13:43:18.499Z,102502.84
2022-08-28T13:45:49.284Z,102499.91
2022-08-28T13:48:20.453Z,102496.28
2022-08-28T13:50:54.625Z,102500.63
2022-08-28T13:53:23.531Z,102491.06
2022-08-28T13:55:52.248Z,102493.88
2022-08-28T13:58:20.389Z,102486.56
2022-08-28T14:00:50.943Z,102484.59
2022-08-28T14:03:36.331Z,102477.59
2022-08-28T14:06:08.544Z,102483.44
2022-08-28T14:08:36.492Z,102481.03
2022-08-28T14:11:04.598Z,102486.53
2022-08-28T14:13:32.744Z,102488.19
2022-08-28T14:16:00.808Z,102483.00
2022-08-28T14:18:29.101Z,102479.31
2022-08-28T14:20:57.035Z,102477.41
2022-08-28T14:23:26.455Z,102476.41
2022-08-28T14:25:54.470Z,102474.72
2022-08-28T14:28:22.557Z,102473.28
2022-08-28T14:30:52.500Z,102468.44
2022-08-28T14:33:21.058Z,102465.31
2022-08-28T14:35:49.943Z,102459.28
2022-08-28T14:38:18.415Z,102458.53
2022-08-28T14:40:47.840Z,102455.88
2022-08-28T14:43:16.026Z,102456.25
2022-08-28T14:45:45.766Z,102453.97
2022-08-28T14:48:14.774Z,102459.56
2022-08-28T14:50:43.447Z,102452.66
2022-08-28T14:53:12.807Z,102449.94
2022-08-28T14:55:42.558Z,102452.66
2022-08-28T14:58:12.590Z,102455.13
2022-08-28T15:00:41.569Z,102452.81
2022-08-28T15:03:09.803Z,102444.22
2022-08-28T15:05:37.921Z,102451.38
2022-08-28T15:08:09.355Z,102451.50
2022-08-28T15:10:38.842Z,102443.38
2022-08-28T15:13:07.798Z,102451.97
2022-08-28T15:15:39.444Z,102456.06
2022-08-28T15:18:07.996Z,102453.16
2022-08-28T15:20:39.782Z,102452.66
2022-08-28T15:23:07.907Z,102456.63
2022-08-28T15:25:36.010Z,102457.19
2022-08-28T15:28:04.418Z,102456.09
2022-08-28T15:30:32.466Z,102469.44
2022-08-28T15:33:02.387Z,102471.53
2022-08-28T15:35:30.328Z,102477.00
2022-08-28T15:37:58.505Z,102478.94
2022-08-28T15:40:44.176Z,102481.38
2022-08-28T15:43:12.436Z,102475.88
2022-08-28T15:45:41.771Z,102488.03
2022-08-28T15:48:12.068Z,102490.44
2022-08-28T15:50:41.579Z,102488.34
2022-08-28T15:53:09.526Z,102482.88
2022-08-28T15:55:37.567Z,102479.22
2022-08-28T15:58:08.841Z,102475.84
2022-08-28T16:00:42.910Z,102474.41
2022-08-28T16:03:12.588Z,102476.09
2022-08-28T16:05:40.942Z,102483.13
2022-08-28T16:08:10.380Z,102481.88
2022-08-28T16:10:38.646Z,102479.97
2022-08-28T16:13:06.866Z,102476.44
2022-08-28T16:15:35.086Z,102479.22
2022-08-28T16:18:03.344Z,102471.69
2022-08-28T16:20:32.667Z,102466.91
2022-08-28T16:23:00.613Z,102470.66
2022-08-28T16:25:29.012Z,102467.34
2022-08-28T16:27:57.008Z,102468.78
2022-08-28T16:30:25.055Z,102481.44
2022-08-28T16:32:54.171Z,102477.19
2022-08-28T16:35:22.649Z,102481.44
2022-08-28T16:37:52.301Z,102470.19
2022-08-28T16:40:20.528Z,102471.38
2022-08-28T16:42:51.404Z,102470.00
2022-08-28T16:45:20.859Z,102474.44
2022-08-28T16:47:49.281Z,102464.25
2022-08-28T16:50:17.593Z,102472.25
2022-08-28T16:52:45.534Z,102467.38
2022-08-28T16:55:14.941Z,102462.22
2022-08-28T16:57:43.070Z,102465.78
2022-08-28T17:00:13.672Z,102466.78
2022-08-28T17:02:42.209Z,102456.31
2022-08-28T17:05:11.765Z,102465.34
2022-08-28T17:07:41.040Z,102460.22
2022-08-28T17:10:10.491Z,102456.56
2022-08-28T17:12:40.146Z,102462.16
2022-08-28T17:15:11.363Z,102455.38
2022-08-28T17:17:39.945Z,102459.28
2022-08-28T17:20:29.749Z,102463.81
2022-08-28T17:22:56.762Z,102459.41
2022-08-28T17:25:25.381Z,102451.75
2022-08-28T17:27:54.854Z,102456.03
2022-08-28T17:30:23.556Z,102459.03
2022-08-28T17:32:51.800Z,102444.13
2022-08-28T17:35:20.159Z,102451.59
2022-08-28T17:37:50.690Z,102452.91
2022-08-28T17:40:19.155Z,102460.34
2022-08-28T17:42:48.795Z,102466.09
2022-08-28T17:45:18.283Z,102459.22
2022-08-28T17:47:46.302Z,102455.94
2022-08-28T17:50:14.274Z,102455.00
2022-08-28T17:52:42.238Z,102452.34
2022-08-28T17:55:10.444Z,102448.75
2022-08-28T17:57:38.453Z,102449.34
2022-08-28T18:00:09.386Z,102451.84
2022-08-28T18:02:39.387Z,102451.84
2022-08-28T18:05:08.289Z,102455.13
2022-08-28T18:07:36.289Z,102459.47
2022-08-28T18:10:04.615Z,102453.03
2022-08-28T18:12:32.567Z,102442.97
2022-08-28T18:15:00.535Z,102449.84
2022-08-28T18:17:28.770Z,102455.78
2022-08-28T18:19:58.309Z,102460.78
2022-08-28T18:22:29.638Z,102463.50
2022-08-28T18:24:58.162Z,102465.53
2022-08-28T18:27:27.831Z,102475.69
2022-08-28T18:29:55.794Z,102469.59
2022-08-28T18:32:23.717Z,102475.75
2022-08-28T18:34:51.711Z,102471.94
2022-08-28T18:37:21.097Z,102479.75
2022-08-28T18:39:49.007Z,102489.13
2022-08-28T18:42:19.743Z,102476.28
2022-08-28T18:44:47.689Z,102481.16
2022-08-28T18:47:15.617Z,102485.09
2022-08-28T18:49:43.552Z,102484.78
2022-08-28T18:52:11.461Z,102486.19
2022-08-28T18:54:40.795Z,102479.59
2022-08-28T18:57:10.639Z,102492.47
2022-08-28T18:59:40.425Z,102487.66
2022-08-28T19:02:08.738Z,102495.06
2022-08-28T19:04:36.877Z,102497.28
2022-08-28T19:07:04.878Z,102497.72
2022-08-28T19:09:34.908Z,102500.69
2022-08-28T19:12:05.342Z,102507.25
2022-08-28T19:14:34.295Z,102504.91
2022-08-28T19:17:02.865Z,102518.47
2022-08-28T19:19:33.422Z,102514.53
2022-08-28T19:22:01.751Z,102517.72
2022-08-28T19:24:33.587Z,102518.09
2022-08-28T19:27:01.699Z,102517.78
2022-08-28T19:29:31.126Z,102523.47
2022-08-28T19:31:59.159Z,102514.28
2022-08-28T19:34:27.490Z,102519.13
2022-08-28T19:36:55.439Z,102524.81
2022-08-28T19:39:23.496Z,102519.91
2022-08-28T19:41:51.450Z,102521.16
2022-08-28T19:44:19.485Z,102532.06
2022-08-28T19:46:49.429Z,102537.75
2022-08-28T19:49:17.389Z,102529.31
2022-08-28T19:51:45.319Z,102534.91
2022-08-28T19:54:15.869Z,102541.56
2022-08-28T19:56:43.797Z,102536.63
2022-08-28T19:59:11.813Z,102540.59
2022-08-28T20:01:43.686Z,102549.69
2022-08-28T20:04:17.543Z,102557.94
2022-08-28T20:06:46.209Z,102554.75
2022-08-28T20:09:17.305Z,102562.19
2022-08-28T20:11:47.012Z,102552.84
2022-08-28T20:14:16.788Z,102554.91
2022-08-28T20:16:47.133Z,102552.66
2022-08-28T20:19:18.826Z,102551.97
2022-08-28T20:21:49.990Z,102553.28
2022-08-28T20:24:22.139Z,102565.06
2022-08-28T20:26:51.240Z,102569.72
2022-08-28T20:29:19.852Z,102567.25
2022-08-28T20:31:49.300Z,102567.53
2022-08-28T20:34:20.176Z,102569.56
2022-08-28T20:36:48.559Z,102580.41
2022-08-28T20:39:17.124Z,102578.03
2022-08-28T20:41:45.949Z,102572.00
2022-08-28T20:44:16.596Z,102577.38
2022-08-28T20:46:50.963Z,102576.59
2022-08-28T20:49:22.961Z,102583.97
2022-08-28T20:51:56.610Z,102578.75
2022-08-28T20:54:27.853Z,102584.31
2022-08-28T20:56:57.224Z,102583.44
2022-08-28T20:59:28.902Z,102582.66
2022-08-28T21:02:10.394Z,102583.59
2022-08-28T21:04:40.880Z,102578.28
2022-08-28T21:07:09.365Z,102583.50
2022-08-28T21:10:05.317Z,102585.38
2022-08-28T21:12:25.620Z,102574.13
2022-08-28T21:14:53.953Z,102587.53
2022-08-28T21:17:28.712Z,102584.13
2022-08-28T21:20:00.168Z,102582.41
2022-08-28T21:22:28.678Z,102588.63
2022-08-28T21:24:56.684Z,102579.00
2022-08-28T21:27:24.864Z,102586.84
2022-08-28T21:29:55.338Z,102579.84
2022-08-28T21:32:23.319Z,102585.22
2022-08-28T21:34:51.398Z,102595.03
2022-08-28T21:37:20.750Z,102578.38
2022-08-28T21:39:48.693Z,102583.78
2022-08-28T21:42:16.872Z,102582.25
2022-08-28T21:44:51.505Z,102575.25
2022-08-28T21:47:21.547Z,102576.28
2022-08-28T21:49:50.197Z,102571.16
2022-08-28T21:52:18.456Z,102572.09
2022-08-28T21:54:47.969Z,102569.59
2022-08-28T21:57:16.170Z,102577.75
2022-08-28T21:59:44.585Z,102581.38
2022-08-28T22:02:12.559Z,102588.69
2022-08-28T22:04:40.656Z,102587.19
2022-08-28T22:07:09.888Z,102590.06
2022-08-28T22:09:37.846Z,102585.78
2022-08-28T22:12:09.009Z,102590.41
2022-08-28T22:14:36.989Z,102586.97
2022-08-28T22:17:10.161Z,102582.81
2022-08-28T22:19:39.384Z,102588.16
2022-08-28T22:22:24.600Z,102582.22
2022-08-28T22:24:52.619Z,102583.28
2022-08-28T22:27:21.979Z,102580.00
2022-08-28T22:29:49.924Z,102588.94
2022-08-28T22:32:18.347Z,102598.78
2022-08-28T22:34:47.232Z,102600.75
2022-08-28T22:37:15.240Z,102599.09
2022-08-28T22:39:44.105Z,102594.06
2022-08-28T22:42:12.083Z,102598.72
2022-08-28T22:44:41.536Z,102598.09
2022-08-28T22:47:09.724Z,102602.59
2022-08-28T22:49:39.820Z,102600.06
2022-08-28T22:52:10.192Z,102602.75
2022-08-28T22:54:38.603Z,102602.09
2022-08-28T22:57:06.977Z,102607.59
2022-08-28T22:59:35.024Z,102609.44
2022-08-28T23:02:05.577Z,102609.59
2022-08-28T23:04:33.968Z,102615.91
2022-08-28T23:07:01.859Z,102613.41
2022-08-28T23:09:29.822Z,102610.16
2022-08-28T23:12:00.146Z,102611.06
2022-08-28T23:14:28.607Z,102612.94
2022-08-28T23:16:56.742Z,102606.03
2022-08-28T23:19:26.578Z,102602.69
2022-08-28T23:21:54.462Z,102607.22
2022-08-28T23:24:22.325Z,102608.31
2022-08-28T23:26:50.411Z,102607.44
2022-08-28T23:29:18.372Z,102608.47
2022-08-28T23:31:46.512Z,102605.97
2022-08-28T23:34:16.163Z,102599.22
2022-08-28T23:36:45.501Z,102603.78
2022-08-28T23:39:13.582Z,102603.25
2022-08-28T23:41:42.109Z,102603.53
2022-08-28T23:44:10.180Z,102608.25
2022-08-28T23:46:41.692Z,102623.22
2022-08-28T23:49:10.490Z,102623.25
2022-08-28T23:51:38.968Z,102626.75
2022-08-28T23:54:09.343Z,102623.25
2022-08-28T23:56:37.656Z,102624.13
2022-08-28T23:59:06.856Z,102623.25
